sensor_id;sensor_type;location;lat;lon;timestamp;pressure;altitude;pressure_sealevel;temperature;humidity
46714;BME280;32445;51.376;10.874;2022-10-16T00:00:17;99048.94;;;18.23;59.28
46714;BME280;32445;51.376;10.874;2022-10-16T00:03:17;99043.06;;;18.20;59.18
46714;BME280;32445;51.376;10.874;2022-10-16T00:06:19;99041.38;;;18.19;59.43
46714;BME280;32445;51.376;10.874;2022-10-16T00:09:20;99023.00;;;18.19;59.17
46714;BME280;32445;51.376;10.874;2022-10-16T00:12:20;99027.31;;;18.20;59.46
46714;BME280;32445;51.376;10.874;2022-10-16T00:15:20;99035.19;;;18.20;59.02
46714;BME280;32445;51.376;10.874;2022-10-16T00:18:21;99034.44;;;18.18;59.25
46714;BME280;32445;51.376;10.874;2022-10-16T00:21:24;99040.72;;;18.15;59.47
46714;BME280;32445;51.376;10.874;2022-10-16T00:24:25;99037.47;;;18.11;59.84
46714;BME280;32445;51.376;10.874;2022-10-16T00:27:25;99037.47;;;18.11;59.74
46714;BME280;32445;51.376;10.874;2022-10-16T00:30:25;99048.81;;;18.12;59.42
46714;BME280;32445;51.376;10.874;2022-10-16T00:33:27;99050.59;;;18.11;59.33
46714;BME280;32445;51.376;10.874;2022-10-16T00:36:28;99054.06;;;18.12;59.40
46714;BME280;32445;51.376;10.874;2022-10-16T00:39:28;99058.47;;;18.11;58.92
46714;BME280;32445;51.376;10.874;2022-10-16T00:42:29;99060.25;;;18.11;59.02
46714;BME280;32445;51.376;10.874;2022-10-16T00:45:29;99060.25;;;18.11;59.09
46714;BME280;32445;51.376;10.874;2022-10-16T00:48:30;99057.81;;;18.08;58.77
46714;BME280;32445;51.376;10.874;2022-10-16T00:51:40;99065.78;;;18.06;59.07
46714;BME280;32445;51.376;10.874;2022-10-16T00:54:41;99074.59;;;18.05;59.29
46714;BME280;32445;51.376;10.874;2022-10-16T00:57:42;99074.72;;;18.04;59.14
46714;BME280;32445;51.376;10.874;2022-10-16T01:00:43;99060.00;;;18.01;59.07
46714;BME280;32445;51.376;10.874;2022-10-16T01:03:44;99057.38;;;18.01;59.04
46714;BME280;32445;51.376;10.874;2022-10-16T01:13:38;99062.19;;;17.94;58.05
46714;BME280;32445;51.376;10.874;2022-10-16T01:16:49;99069.03;;;17.97;58.65
46714;BME280;32445;51.376;10.874;2022-10-16T01:20:04;99064.69;;;17.96;58.73
46714;BME280;32445;51.376;10.874;2022-10-16T01:29:30;99057.97;;;17.92;58.17
46714;BME280;32445;51.376;10.874;2022-10-16T01:32:37;99068.56;;;17.90;57.88
46714;BME280;32445;51.376;10.874;2022-10-16T01:35:43;99065.16;;;17.88;57.71
46714;BME280;32445;51.376;10.874;2022-10-16T01:38:48;99077.53;;;17.86;57.66
46714;BME280;32445;51.376;10.874;2022-10-16T01:41:55;99068.94;;;17.84;58.16
46714;BME280;32445;51.376;10.874;2022-10-16T01:44:59;99083.81;;;17.84;57.86
46714;BME280;32445;51.376;10.874;2022-10-16T01:48:01;99070.78;;;17.82;57.55
46714;BME280;32445;51.376;10.874;2022-10-16T01:51:11;99083.28;;;17.78;57.29
46714;BME280;32445;51.376;10.874;2022-10-16T01:54:13;99093.78;;;17.78;57.43
46714;BME280;32445;51.376;10.874;2022-10-16T01:57:17;99096.59;;;17.75;57.38
46714;BME280;32445;51.376;10.874;2022-10-16T02:00:19;99088.88;;;17.72;57.54
46714;BME280;32445;51.376;10.874;2022-10-16T02:03:21;99084.59;;;17.71;57.40
46714;BME280;32445;51.376;10.874;2022-10-16T02:06:22;99084.69;;;17.70;57.34
46714;BME280;32445;51.376;10.874;2022-10-16T02:09:23;99087.44;;;17.68;57.50
46714;BME280;32445;51.376;10.874;2022-10-16T02:12:27;99070.91;;;17.66;57.30
46714;BME280;32445;51.376;10.874;2022-10-16T02:15:28;99078.06;;;17.64;57.08
46714;BME280;32445;51.376;10.874;2022-10-16T02:18:29;99086.84;;;17.63;56.82
46714;BME280;32445;51.376;10.874;2022-10-16T02:21:51;99076.75;;;17.57;57.47
46714;BME280;32445;51.376;10.874;2022-10-16T02:25:00;99083.75;;;17.56;56.96
46714;BME280;32445;51.376;10.874;2022-10-16T02:31:08;99082.53;;;17.47;58.31
46714;BME280;32445;51.376;10.874;2022-10-16T02:34:12;99081.22;;;17.40;59.30
46714;BME280;32445;51.376;10.874;2022-10-16T02:37:14;99085.75;;;17.38;59.38
46714;BME280;32445;51.376;10.874;2022-10-16T02:40:17;99103.34;;;17.36;59.19
46714;BME280;32445;51.376;10.874;2022-10-16T02:43:18;99109.44;;;17.37;58.91
46714;BME280;32445;51.376;10.874;2022-10-16T02:46:19;99111.31;;;17.35;59.09
46714;BME280;32445;51.376;10.874;2022-10-16T02:49:20;99093.13;;;17.32;59.17
46714;BME280;32445;51.376;10.874;2022-10-16T02:52:20;99101.78;;;17.34;58.87
46714;BME280;32445;51.376;10.874;2022-10-16T02:55:20;99101.69;;;17.35;59.12
46714;BME280;32445;51.376;10.874;2022-10-16T02:58:21;99106.94;;;17.35;58.83
46714;BME280;32445;51.376;10.874;2022-10-16T03:01:21;99095.56;;;17.35;59.42
46714;BME280;32445;51.376;10.874;2022-10-16T03:04:22;99092.31;;;17.31;59.70
46714;BME280;32445;51.376;10.874;2022-10-16T03:07:22;99102.31;;;17.24;60.73
46714;BME280;32445;51.376;10.874;2022-10-16T03:10:23;99087.97;;;17.16;61.11
46714;BME280;32445;51.376;10.874;2022-10-16T03:13:23;99084.34;;;17.18;60.46
46714;BME280;32445;51.376;10.874;2022-10-16T03:16:23;99093.03;;;17.19;60.85
46714;BME280;32445;51.376;10.874;2022-10-16T03:19:24;99101.81;;;17.18;61.60
46714;BME280;32445;51.376;10.874;2022-10-16T03:22:24;99115.22;;;17.13;61.26
46714;BME280;32445;51.376;10.874;2022-10-16T03:25:24;99116.91;;;17.14;61.29
46714;BME280;32445;51.376;10.874;2022-10-16T03:28:25;99118.53;;;17.17;61.06
46714;BME280;32445;51.376;10.874;2022-10-16T03:31:25;99122.56;;;17.22;61.07
46714;BME280;32445;51.376;10.874;2022-10-16T03:34:25;99110.00;;;17.27;60.69
46714;BME280;32445;51.376;10.874;2022-10-16T03:37:26;99126.31;;;17.33;60.48
46714;BME280;32445;51.376;10.874;2022-10-16T03:40:26;99108.59;;;17.36;59.91
46714;BME280;32445;51.376;10.874;2022-10-16T03:43:27;99118.16;;;17.37;59.97
46714;BME280;32445;51.376;10.874;2022-10-16T03:46:27;99115.91;;;17.31;60.09
46714;BME280;32445;51.376;10.874;2022-10-16T03:49:27;99115.16;;;17.29;60.55
46714;BME280;32445;51.376;10.874;2022-10-16T03:52:28;99134.38;;;17.29;60.45
46714;BME280;32445;51.376;10.874;2022-10-16T03:55:28;99131.06;;;17.26;60.63
46714;BME280;32445;51.376;10.874;2022-10-16T03:58:28;99137.09;;;17.28;60.55
46714;BME280;32445;51.376;10.874;2022-10-16T04:01:29;99144.00;;;17.29;60.78
46714;BME280;32445;51.376;10.874;2022-10-16T04:04:29;99138.66;;;17.30;60.34
46714;BME280;32445;51.376;10.874;2022-10-16T04:07:29;99149.00;;;17.34;59.76
46714;BME280;32445;51.376;10.874;2022-10-16T04:10:30;99149.72;;;17.36;60.03
46714;BME280;32445;51.376;10.874;2022-10-16T04:13:30;99156.88;;;17.34;60.29
46714;BME280;32445;51.376;10.874;2022-10-16T04:16:30;99169.88;;;17.35;60.12
46714;BME280;32445;51.376;10.874;2022-10-16T04:19:31;99170.81;;;17.34;60.02
46714;BME280;32445;51.376;10.874;2022-10-16T04:22:31;99172.59;;;17.34;59.92
46714;BME280;32445;51.376;10.874;2022-10-16T04:25:31;99185.63;;;17.35;60.14
46714;BME280;32445;51.376;10.874;2022-10-16T04:28:32;99191.72;;;17.36;60.10
46714;BME280;32445;51.376;10.874;2022-10-16T04:31:33;99176.97;;;17.33;59.88
46714;BME280;32445;51.376;10.874;2022-10-16T04:34:33;99171.66;;;17.35;59.83
46714;BME280;32445;51.376;10.874;2022-10-16T04:37:33;99154.97;;;17.36;59.62
46714;BME280;32445;51.376;10.874;2022-10-16T04:40:34;99167.06;;;17.38;59.42
46714;BME280;32445;51.376;10.874;2022-10-16T04:43:36;99164.44;;;17.38;58.95
46714;BME280;32445;51.376;10.874;2022-10-16T04:46:36;99175.69;;;17.40;58.67
46714;BME280;32445;51.376;10.874;2022-10-16T04:49:37;99190.50;;;17.41;58.86
46714;BME280;32445;51.376;10.874;2022-10-16T04:52:37;99190.59;;;17.40;58.35
46714;BME280;32445;51.376;10.874;2022-10-16T04:55:39;99192.34;;;17.39;58.08
46714;BME280;32445;51.376;10.874;2022-10-16T04:58:39;99195.06;;;17.38;58.23
46714;BME280;32445;51.376;10.874;2022-10-16T05:01:39;99195.16;;;17.36;58.04
46714;BME280;32445;51.376;10.874;2022-10-16T05:04:40;99197.88;;;17.35;57.77
46714;BME280;32445;51.376;10.874;2022-10-16T05:07:40;99206.75;;;17.32;57.98
46714;BME280;32445;51.376;10.874;2022-10-16T05:10:42;99194.69;;;17.29;57.71
46714;BME280;32445;51.376;10.874;2022-10-16T05:13:42;99191.22;;;17.29;57.71
46714;BME280;32445;51.376;10.874;2022-10-16T05:16:42;99194.84;;;17.26;57.55
46714;BME280;32445;51.376;10.874;2022-10-16T05:19:43;99206.56;;;17.21;58.63
46714;BME280;32445;51.376;10.874;2022-10-16T05:22:43;99208.69;;;17.14;59.19
46714;BME280;32445;51.376;10.874;2022-10-16T05:25:52;99202.22;;;17.05;60.26
46714;BME280;32445;51.376;10.874;2022-10-16T05:28:52;99198.81;;;17.03;60.28
46714;BME280;32445;51.376;10.874;2022-10-16T05:31:53;99200.78;;;17.00;61.12
46714;BME280;32445;51.376;10.874;2022-10-16T05:34:53;99200.97;;;16.97;61.12
46714;BME280;32445;51.376;10.874;2022-10-16T05:37:53;99207.13;;;16.95;61.49
46714;BME280;32445;51.376;10.874;2022-10-16T05:40:54;99197.50;;;16.96;61.63
46714;BME280;32445;51.376;10.874;2022-10-16T05:43:54;99184.38;;;16.96;61.79
46714;BME280;32445;51.376;10.874;2022-10-16T05:46:54;99187.09;;;16.94;61.58
46714;BME280;32445;51.376;10.874;2022-10-16T05:49:55;99192.34;;;16.94;61.91
46714;BME280;32445;51.376;10.874;2022-10-16T05:52:56;99203.50;;;16.98;61.36
46714;BME280;32445;51.376;10.874;2022-10-16T05:55:57;99200.69;;;17.01;61.21
46714;BME280;32445;51.376;10.874;2022-10-16T05:58:58;99186.47;;;17.05;61.01
46714;BME280;32445;51.376;10.874;2022-10-16T06:01:58;99189.00;;;17.07;61.33
46714;BME280;32445;51.376;10.874;2022-10-16T06:04:58;99170.56;;;17.08;61.38
46714;BME280;32445;51.376;10.874;2022-10-16T06:07:58;99171.16;;;17.14;61.33
46714;BME280;32445;51.376;10.874;2022-10-16T06:11:03;99172.09;;;17.12;61.23
46714;BME280;32445;51.376;10.874;2022-10-16T06:14:04;99153.81;;;17.11;61.54
46714;BME280;32445;51.376;10.874;2022-10-16T06:17:06;99144.25;;;17.10;61.69
46714;BME280;32445;51.376;10.874;2022-10-16T06:20:07;99155.41;;;17.14;61.54
46714;BME280;32445;51.376;10.874;2022-10-16T06:23:08;99163.09;;;17.17;61.20
46714;BME280;32445;51.376;10.874;2022-10-16T06:26:13;99205.72;;;17.20;61.68
46714;BME280;32445;51.376;10.874;2022-10-16T06:29:14;99223.06;;;17.23;61.38
46714;BME280;32445;51.376;10.874;2022-10-16T06:32:15;99229.22;;;17.22;61.35
46714;BME280;32445;51.376;10.874;2022-10-16T06:35:15;99237.28;;;17.19;61.38
46714;BME280;32445;51.376;10.874;2022-10-16T06:38:15;99236.16;;;17.23;61.21
46714;BME280;32445;51.376;10.874;2022-10-16T06:41:18;99250.03;;;17.25;60.77
46714;BME280;32445;51.376;10.874;2022-10-16T06:44:18;99255.97;;;17.28;60.90
46714;BME280;32445;51.376;10.874;2022-10-16T06:47:19;99261.03;;;17.32;60.80
46714;BME280;32445;51.376;10.874;2022-10-16T06:50:19;99248.69;;;17.34;60.72
46714;BME280;32445;51.376;10.874;2022-10-16T06:53:19;99262.63;;;17.34;60.81
46714;BME280;32445;51.376;10.874;2022-10-16T06:56:22;99274.03;;;17.33;61.07
46714;BME280;32445;51.376;10.874;2022-10-16T06:59:23;99281.91;;;17.33;61.40
46714;BME280;32445;51.376;10.874;2022-10-16T07:02:23;99297.00;;;17.29;60.80
46714;BME280;32445;51.376;10.874;2022-10-16T07:05:23;99300.47;;;17.30;61.22
46714;BME280;32445;51.376;10.874;2022-10-16T07:08:24;99298.44;;;17.35;60.87
46714;BME280;32445;51.376;10.874;2022-10-16T07:11:24;99289.50;;;17.38;60.82
46714;BME280;32445;51.376;10.874;2022-10-16T07:14:24;99293.66;;;17.42;60.84
46714;BME280;32445;51.376;10.874;2022-10-16T07:17:25;99302.31;;;17.44;61.18
46714;BME280;32445;51.376;10.874;2022-10-16T07:20:25;99305.66;;;17.46;61.27
46714;BME280;32445;51.376;10.874;2022-10-16T07:23:25;99310.72;;;17.49;61.00
46714;BME280;32445;51.376;10.874;2022-10-16T07:26:27;99322.94;;;17.50;61.29
46714;BME280;32445;51.376;10.874;2022-10-16T07:29:28;99331.41;;;17.55;61.42
46714;BME280;32445;51.376;10.874;2022-10-16T07:32:28;99334.75;;;17.57;61.46
46714;BME280;32445;51.376;10.874;2022-10-16T07:35:28;99340.84;;;17.58;61.13
46714;BME280;32445;51.376;10.874;2022-10-16T07:38:29;99332.88;;;17.59;61.08
46714;BME280;32445;51.376;10.874;2022-10-16T07:41:29;99352.69;;;17.65;60.83
46714;BME280;32445;51.376;10.874;2022-10-16T07:44:30;99356.06;;;17.67;60.66
46714;BME280;32445;51.376;10.874;2022-10-16T07:47:30;99361.97;;;17.71;60.54
46714;BME280;32445;51.376;10.874;2022-10-16T07:50:30;99367.91;;;17.74;60.86
46714;BME280;32445;51.376;10.874;2022-10-16T07:53:32;99360.63;;;17.79;60.89
46714;BME280;32445;51.376;10.874;2022-10-16T07:56:32;99358.75;;;17.81;60.29
46714;BME280;32445;51.376;10.874;2022-10-16T07:59:33;99345.72;;;17.80;60.39
46714;BME280;32445;51.376;10.874;2022-10-16T08:02:33;99343.72;;;17.84;60.11
46714;BME280;32445;51.376;10.874;2022-10-16T08:05:33;99345.34;;;17.86;60.06
46714;BME280;32445;51.376;10.874;2022-10-16T08:08:34;99359.09;;;17.91;60.02
46714;BME280;32445;51.376;10.874;2022-10-16T08:11:35;99355.25;;;17.97;59.72
46714;BME280;32445;51.376;10.874;2022-10-16T08:14:35;99354.22;;;18.00;59.32
46714;BME280;32445;51.376;10.874;2022-10-16T08:17:36;99383.59;;;18.06;59.50
46714;BME280;32445;51.376;10.874;2022-10-16T08:20:37;99375.53;;;18.09;59.12
46714;BME280;32445;51.376;10.874;2022-10-16T08:23:37;99381.53;;;18.11;58.95
46714;BME280;32445;51.376;10.874;2022-10-16T08:26:37;99375.53;;;18.09;58.96
46714;BME280;32445;51.376;10.874;2022-10-16T08:29:38;99384.06;;;18.13;58.55
46714;BME280;32445;51.376;10.874;2022-10-16T08:32:38;99389.03;;;18.18;58.62
46714;BME280;32445;51.376;10.874;2022-10-16T08:35:39;99389.53;;;18.24;58.26
46714;BME280;32445;51.376;10.874;2022-10-16T08:38:39;99395.44;;;18.28;58.34
46714;BME280;32445;51.376;10.874;2022-10-16T08:45:14;99406.53;;;18.33;58.46
46714;BME280;32445;51.376;10.874;2022-10-16T08:48:23;99413.00;;;18.42;58.16
46714;BME280;32445;51.376;10.874;2022-10-16T08:51:29;99415.44;;;18.45;58.17
46714;BME280;32445;51.376;10.874;2022-10-16T08:54:36;99412.63;;;18.48;58.06
46714;BME280;32445;51.376;10.874;2022-10-16T08:57:40;99427.09;;;18.55;57.86
46714;BME280;32445;51.376;10.874;2022-10-16T09:00:41;99437.41;;;18.58;57.81
46714;BME280;32445;51.376;10.874;2022-10-16T09:07:30;99439.69;;;18.64;57.92
46714;BME280;32445;51.376;10.874;2022-10-16T09:10:56;99450.84;;;18.68;57.98
46714;BME280;32445;51.376;10.874;2022-10-16T09:20:49;99452.41;;;18.87;57.67
46714;BME280;32445;51.376;10.874;2022-10-16T09:23:51;99465.19;;;18.93;57.26
46714;BME280;32445;51.376;10.874;2022-10-16T09:26:53;99466.66;;;18.97;56.96
46714;BME280;32445;51.376;10.874;2022-10-16T09:29:54;99463.88;;;19.00;57.05
46714;BME280;32445;51.376;10.874;2022-10-16T09:32:57;99469.69;;;19.05;56.93
46714;BME280;32445;51.376;10.874;2022-10-16T09:35:58;99472.00;;;19.10;57.01
46714;BME280;32445;51.376;10.874;2022-10-16T09:39:11;99472.59;;;19.15;56.88
46714;BME280;32445;51.376;10.874;2022-10-16T09:42:31;99475.78;;;19.20;56.87
46714;BME280;32445;51.376;10.874;2022-10-16T09:45:32;99476.31;;;19.25;56.60
46714;BME280;32445;51.376;10.874;2022-10-16T09:48:36;99469.84;;;19.31;56.46
46714;BME280;32445;51.376;10.874;2022-10-16T09:51:37;99476.59;;;19.35;56.14
46714;BME280;32445;51.376;10.874;2022-10-16T09:54:49;99486.19;;;19.36;56.03
46714;BME280;32445;51.376;10.874;2022-10-16T09:57:53;99481.47;;;19.41;56.13
46714;BME280;32445;51.376;10.874;2022-10-16T10:00:54;99489.19;;;19.44;55.84
46714;BME280;32445;51.376;10.874;2022-10-16T10:03:56;99486.25;;;19.49;55.90
46714;BME280;32445;51.376;10.874;2022-10-16T10:07:01;99491.44;;;19.50;55.93
46714;BME280;32445;51.376;10.874;2022-10-16T10:10:04;99485.31;;;19.50;55.45
46714;BME280;32445;51.376;10.874;2022-10-16T10:13:20;99488.03;;;19.48;55.51
46714;BME280;32445;51.376;10.874;2022-10-16T10:16:23;99471.31;;;19.49;55.32
46714;BME280;32445;51.376;10.874;2022-10-16T10:19:24;99485.22;;;19.51;55.69
46714;BME280;32445;51.376;10.874;2022-10-16T10:22:38;99489.16;;;19.59;55.94
46714;BME280;32445;51.376;10.874;2022-10-16T10:25:51;99495.44;;;19.70;55.91
46714;BME280;32445;51.376;10.874;2022-10-16T10:32:26;99493.56;;;20.00;55.24
46714;BME280;32445;51.376;10.874;2022-10-16T10:35:58;99501.28;;;20.16;54.63
46714;BME280;32445;51.376;10.874;2022-10-16T10:39:20;99506.41;;;20.32;54.40
46714;BME280;32445;51.376;10.874;2022-10-16T10:45:43;99496.63;;;20.47;52.78
46714;BME280;32445;51.376;10.874;2022-10-16T10:48:58;99500.31;;;20.44;52.48
46714;BME280;32445;51.376;10.874;2022-10-16T10:52:33;99505.69;;;20.43;52.52
46714;BME280;32445;51.376;10.874;2022-10-16T11:05:44;99515.47;;;20.81;53.30
46714;BME280;32445;51.376;10.874;2022-10-16T11:09:02;99498.97;;;21.03;52.03
46714;BME280;32445;51.376;10.874;2022-10-16T11:12:20;99503.38;;;21.28;51.25
46714;BME280;32445;51.376;10.874;2022-10-16T11:15:37;99500.59;;;21.42;50.52
46714;BME280;32445;51.376;10.874;2022-10-16T11:22:43;99502.34;;;21.68;49.46
46714;BME280;32445;51.376;10.874;2022-10-16T11:25:47;99501.97;;;21.85;48.29
46714;BME280;32445;51.376;10.874;2022-10-16T11:28:49;99509.97;;;21.97;47.67
46714;BME280;32445;51.376;10.874;2022-10-16T11:31:55;99504.63;;;22.09;47.03
46714;BME280;32445;51.376;10.874;2022-10-16T11:35:00;99501.38;;;22.17;45.67
46714;BME280;32445;51.376;10.874;2022-10-16T11:38:07;99493.72;;;22.25;46.24
46714;BME280;32445;51.376;10.874;2022-10-16T11:41:34;99504.75;;;22.43;46.54
46714;BME280;32445;51.376;10.874;2022-10-16T11:47:48;99509.72;;;22.71;45.04
46714;BME280;32445;51.376;10.874;2022-10-16T11:51:05;99507.09;;;22.82;44.30
46714;BME280;32445;51.376;10.874;2022-10-16T11:54:28;99516.13;;;22.91;45.60
46714;BME280;32445;51.376;10.874;2022-10-16T11:57:39;99507.63;;;22.98;44.17
46714;BME280;32445;51.376;10.874;2022-10-16T12:00:53;99500.63;;;23.09;44.06
46714;BME280;32445;51.376;10.874;2022-10-16T12:04:17;99504.13;;;23.21;44.41
46714;BME280;32445;51.376;10.874;2022-10-16T12:07:34;99503.19;;;23.33;43.77
46714;BME280;32445;51.376;10.874;2022-10-16T12:10:38;99511.00;;;23.46;43.43
46714;BME280;32445;51.376;10.874;2022-10-16T12:13:40;99508.44;;;23.56;43.34
46714;BME280;32445;51.376;10.874;2022-10-16T12:17:27;99513.72;;;23.67;42.83
46714;BME280;32445;51.376;10.874;2022-10-16T12:20:23;99516.47;;;23.88;43.08
46714;BME280;32445;51.376;10.874;2022-10-16T12:23:24;99506.78;;;23.98;42.60
46714;BME280;32445;51.376;10.874;2022-10-16T12:26:27;99506.56;;;24.01;41.92
46714;BME280;32445;51.376;10.874;2022-10-16T12:29:33;99511.06;;;24.11;42.42
46714;BME280;32445;51.376;10.874;2022-10-16T12:32:36;99506.00;;;24.19;42.93
46714;BME280;32445;51.376;10.874;2022-10-16T12:35:43;99508.13;;;24.25;42.32
46714;BME280;32445;51.376;10.874;2022-10-16T12:38:46;99509.75;;;24.38;42.04
46714;BME280;32445;51.376;10.874;2022-10-16T12:41:47;99510.72;;;24.36;42.07
46714;BME280;32445;51.376;10.874;2022-10-16T12:44:47;99505.09;;;24.51;42.81
46714;BME280;32445;51.376;10.874;2022-10-16T12:47:50;99503.97;;;24.65;42.21
46714;BME280;32445;51.376;10.874;2022-10-16T12:50:51;99508.09;;;24.79;42.02
46714;BME280;32445;51.376;10.874;2022-10-16T12:54:02;99512.34;;;24.91;41.07
46714;BME280;32445;51.376;10.874;2022-10-16T13:03:42;99511.94;;;25.27;40.19
46714;BME280;32445;51.376;10.874;2022-10-16T13:10:12;99511.44;;;25.43;41.34
46714;BME280;32445;51.376;10.874;2022-10-16T13:13:40;99514.28;;;25.51;41.27
46714;BME280;32445;51.376;10.874;2022-10-16T13:17:01;99536.00;;;25.66;41.13
46714;BME280;32445;51.376;10.874;2022-10-16T13:23:22;99525.94;;;25.69;40.00
46714;BME280;32445;51.376;10.874;2022-10-16T13:29:32;99538.50;;;25.58;40.00
46714;BME280;32445;51.376;10.874;2022-10-16T13:32:33;99540.28;;;25.47;40.06
46714;BME280;32445;51.376;10.874;2022-10-16T13:35:35;99548.25;;;25.47;39.98
46714;BME280;32445;51.376;10.874;2022-10-16T13:38:36;99547.81;;;25.42;39.30
46714;BME280;32445;51.376;10.874;2022-10-16T13:41:37;99553.28;;;25.41;39.78
46714;BME280;32445;51.376;10.874;2022-10-16T13:44:44;99550.63;;;25.41;39.84
46714;BME280;32445;51.376;10.874;2022-10-16T13:47:46;99565.31;;;25.45;40.39
46714;BME280;32445;51.376;10.874;2022-10-16T13:51:10;99558.59;;;25.41;39.54
46714;BME280;32445;51.376;10.874;2022-10-16T13:54:12;99564.63;;;25.52;40.00
46714;BME280;32445;51.376;10.874;2022-10-16T13:57:14;99561.69;;;25.55;39.74
46714;BME280;32445;51.376;10.874;2022-10-16T14:00:23;99564.81;;;25.61;39.01
46714;BME280;32445;51.376;10.874;2022-10-16T14:03:25;99564.94;;;25.59;39.80
46714;BME280;32445;51.376;10.874;2022-10-16T14:06:26;99565.81;;;25.69;39.65
46714;BME280;32445;51.376;10.874;2022-10-16T14:09:31;99566.66;;;25.80;39.46
46714;BME280;32445;51.376;10.874;2022-10-16T14:12:31;99574.94;;;25.86;39.27
46714;BME280;32445;51.376;10.874;2022-10-16T14:15:34;99577.75;;;25.95;39.54
46714;BME280;32445;51.376;10.874;2022-10-16T14:18:37;99589.09;;;25.97;38.23
46714;BME280;32445;51.376;10.874;2022-10-16T14:21:40;99585.56;;;25.96;38.40
46714;BME280;32445;51.376;10.874;2022-10-16T14:24:40;99587.59;;;26.04;39.00
46714;BME280;32445;51.376;10.874;2022-10-16T14:27:40;99583.69;;;26.08;38.20
46714;BME280;32445;51.376;10.874;2022-10-16T14:30:58;99576.13;;;26.03;38.87
46714;BME280;32445;51.376;10.874;2022-10-16T14:33:59;99579.78;;;26.12;38.99
46714;BME280;32445;51.376;10.874;2022-10-16T14:37:05;99582.03;;;26.17;37.85
46714;BME280;32445;51.376;10.874;2022-10-16T14:40:14;99583.28;;;26.13;38.18
46714;BME280;32445;51.376;10.874;2022-10-16T14:43:21;99586.06;;;26.11;37.51
46714;BME280;32445;51.376;10.874;2022-10-16T14:46:31;99597.97;;;26.07;37.41
46714;BME280;32445;51.376;10.874;2022-10-16T14:49:33;99602.00;;;26.01;37.62
46714;BME280;32445;51.376;10.874;2022-10-16T14:52:33;99603.22;;;25.97;38.17
46714;BME280;32445;51.376;10.874;2022-10-16T14:55:36;99605.19;;;25.95;38.64
46714;BME280;32445;51.376;10.874;2022-10-16T14:58:37;99599.44;;;25.90;38.55
46714;BME280;32445;51.376;10.874;2022-10-16T15:01:37;99608.00;;;25.94;39.29
46714;BME280;32445;51.376;10.874;2022-10-16T15:04:38;99594.41;;;25.97;39.08
46714;BME280;32445;51.376;10.874;2022-10-16T15:07:38;99596.94;;;25.98;38.51
46714;BME280;32445;51.376;10.874;2022-10-16T15:10:43;99601.53;;;25.96;38.89
46714;BME280;32445;51.376;10.874;2022-10-16T15:13:44;99607.84;;;25.95;38.10
46714;BME280;32445;51.376;10.874;2022-10-16T15:16:44;99614.38;;;25.81;37.64
46714;BME280;32445;51.376;10.874;2022-10-16T15:19:45;99602.44;;;25.66;38.25
46714;BME280;32445;51.376;10.874;2022-10-16T15:22:46;99606.94;;;25.65;38.99
46714;BME280;32445;51.376;10.874;2022-10-16T15:25:52;99606.78;;;25.67;38.70
46714;BME280;32445;51.376;10.874;2022-10-16T15:28:53;99614.50;;;25.70;39.48
46714;BME280;32445;51.376;10.874;2022-10-16T15:31:54;99617.28;;;25.68;38.50
46714;BME280;32445;51.376;10.874;2022-10-16T15:34:55;99622.03;;;25.65;39.03
46714;BME280;32445;51.376;10.874;2022-10-16T15:37:57;99623.72;;;25.66;39.19
46714;BME280;32445;51.376;10.874;2022-10-16T15:40:58;99626.63;;;25.63;38.79
46714;BME280;32445;51.376;10.874;2022-10-16T15:43:58;99631.81;;;25.64;38.54
46714;BME280;32445;51.376;10.874;2022-10-16T15:46:58;99623.41;;;25.59;38.57
46714;BME280;32445;51.376;10.874;2022-10-16T15:50:00;99619.34;;;25.55;38.26
46714;BME280;32445;51.376;10.874;2022-10-16T15:53:00;99632.19;;;25.50;39.21
46714;BME280;32445;51.376;10.874;2022-10-16T15:56:05;99627.28;;;25.45;38.80
46714;BME280;32445;51.376;10.874;2022-10-16T15:59:05;99643.75;;;25.39;39.25
46714;BME280;32445;51.376;10.874;2022-10-16T16:02:07;99629.19;;;25.33;39.59
46714;BME280;32445;51.376;10.874;2022-10-16T16:05:10;99634.97;;;25.27;39.21
46714;BME280;32445;51.376;10.874;2022-10-16T16:08:10;99634.53;;;25.22;39.38
46714;BME280;32445;51.376;10.874;2022-10-16T16:11:13;99639.66;;;25.14;39.69
46714;BME280;32445;51.376;10.874;2022-10-16T16:14:14;99650.66;;;25.09;39.85
46714;BME280;32445;51.376;10.874;2022-10-16T16:17:15;99651.16;;;25.03;39.90
46714;BME280;32445;51.376;10.874;2022-10-16T16:20:15;99655.31;;;24.96;40.05
46714;BME280;32445;51.376;10.874;2022-10-16T16:23:16;99662.97;;;24.89;39.88
46714;BME280;32445;51.376;10.874;2022-10-16T16:26:27;99675.34;;;24.79;39.93
46714;BME280;32445;51.376;10.874;2022-10-16T16:29:29;99673.91;;;24.75;40.25
46714;BME280;32445;51.376;10.874;2022-10-16T16:32:30;99679.69;;;24.68;40.33
46714;BME280;32445;51.376;10.874;2022-10-16T16:35:30;99689.13;;;24.61;40.56
46714;BME280;32445;51.376;10.874;2022-10-16T16:38:31;99688.91;;;24.53;40.63
46714;BME280;32445;51.376;10.874;2022-10-16T16:41:32;99685.16;;;24.44;40.90
46714;BME280;32445;51.376;10.874;2022-10-16T16:44:33;99687.63;;;24.36;41.08
46714;BME280;32445;51.376;10.874;2022-10-16T16:47:36;99691.00;;;24.27;40.96
46714;BME280;32445;51.376;10.874;2022-10-16T16:50:38;99675.84;;;24.17;41.23
46714;BME280;32445;51.376;10.874;2022-10-16T16:53:38;99687.03;;;24.10;41.38
46714;BME280;32445;51.376;10.874;2022-10-16T16:56:39;99685.84;;;24.02;41.58
46714;BME280;32445;51.376;10.874;2022-10-16T16:59:42;99686.72;;;23.92;41.52
46714;BME280;32445;51.376;10.874;2022-10-16T17:02:42;99697.16;;;23.82;41.64
46714;BME280;32445;51.376;10.874;2022-10-16T17:08:58;99717.38;;;23.60;41.87
46714;BME280;32445;51.376;10.874;2022-10-16T17:11:58;99725.19;;;23.50;41.96